Glen Ridge, Florida
Current Conditions -  °F | °C
As of 12:53 AM on Monday 20 Oct 2014 (Local Time) from KPBI Reporting Station
Scattered Clouds Scattered Clouds  
Wind Chill: 78°   Ceiling: Unl
Heat Index: 80°   Visibility: 10mi
Dew Point: 65°   Wind: 6mph
Humidity: 64%   Direction: 60°ENE
Pressure: 30.01"   Gusts: NA
Location:  26.6662°N, 80.0908°W
Report Text: KPBI 200453Z 06005KT 10SM SCT043 26/18 A3001 RMK AO2 SLP162 T02560183 402940183
Loading
Personal Weather Stations






























Interactive Weather Map
Tropical Storm Tracking
New forecast layout! Learn more

10-Day Weather Forecast

Advertisements
Track Severe Weather on mobile